EWG4287 LEIB-LKPR
Flight info
| Callsign | EWG4287 |
|---|---|
| Flight time | 2h 7m |
| Altitude | 34000 |
| Route | KABRE DCT ELTAN N853 LUMAS DCT UNANA DCT STP DCT RAPED DCT PIGOS DCT EKSID DCT NOSTA DCT NOPMU DCT OSKOR DCT TAGIP DCT BRENO/N0430F350 DCT TULSI DCT MEBEK DCT NENUM Z39 DOLUP DCT APRAQ |
| Aircraft | A320/M-SDE3FGHIRWY/LB1 |
Departure
| Time | 2026-05-06 14:05 |
|---|---|
| Airport | Ibiza Airport (LEIB) |
Arrival
| Time | 2026-05-06 16:12 |
|---|---|
| Airport | Václav Havel Airport Prague (LKPR) |
| Time | Latitude | Longitude | Altitude | Speed | Heading |
|---|---|---|---|---|---|
| 2026-05-06 13:32 | 38.87576 | 1.37309 | 28 ft | 0 kts | 17° |
| 2026-05-06 13:58 | 38.87578 | 1.37310 | 28 ft | 0 kts | 17° |
| 2026-05-06 13:59 | 38.87598 | 1.37319 | 28 ft | 10 kts | 19° |
| 2026-05-06 13:59 | 38.87674 | 1.37366 | 28 ft | 10 kts | 41° |
| 2026-05-06 13:59 | 38.87697 | 1.37451 | 28 ft | 11 kts | 103° |
| 2026-05-06 14:00 | 38.87640 | 1.37517 | 28 ft | 11 kts | 152° |
| 2026-05-06 14:00 | 38.87566 | 1.37527 | 28 ft | 11 kts | 213° |
| 2026-05-06 14:00 | 38.87522 | 1.37438 | 28 ft | 12 kts | 243° |
| 2026-05-06 14:00 | 38.87479 | 1.37331 | 28 ft | 15 kts | 242° |
| 2026-05-06 14:01 | 38.87424 | 1.37199 | 28 ft | 17 kts | 242° |
| 2026-05-06 14:01 | 38.87367 | 1.37060 | 28 ft | 17 kts | 241° |
| 2026-05-06 14:01 | 38.87308 | 1.36918 | 28 ft | 18 kts | 242° |
| 2026-05-06 14:01 | 38.87248 | 1.36774 | 28 ft | 18 kts | 242° |
| 2026-05-06 14:02 | 38.87185 | 1.36622 | 28 ft | 20 kts | 242° |
| 2026-05-06 14:02 | 38.87120 | 1.36461 | 28 ft | 20 kts | 243° |
| 2026-05-06 14:02 | 38.87055 | 1.36299 | 28 ft | 20 kts | 242° |
| 2026-05-06 14:02 | 38.86988 | 1.36139 | 28 ft | 20 kts | 242° |
| 2026-05-06 14:03 | 38.86921 | 1.35977 | 28 ft | 20 kts | 242° |
| 2026-05-06 14:03 | 38.86864 | 1.35841 | 28 ft | 10 kts | 242° |
| 2026-05-06 14:03 | 38.86804 | 1.35827 | 28 ft | 9 kts | 150° |
| 2026-05-06 14:03 | 38.86801 | 1.35829 | 28 ft | 0 kts | 150° |
| 2026-05-06 14:04 | 38.86799 | 1.35830 | 28 ft | 0 kts | 150° |
| 2026-05-06 14:04 | 38.86747 | 1.35867 | 28 ft | 17 kts | 151° |
| 2026-05-06 14:04 | 38.86717 | 1.35942 | 28 ft | 9 kts | 67° |
| 2026-05-06 14:04 | 38.86760 | 1.36043 | 28 ft | 29 kts | 62° |
| 2026-05-06 14:05 | 38.86966 | 1.36543 | 28 ft | 96 kts | 63° |
| 2026-05-06 14:05 | 38.87379 | 1.37535 | 29 ft | 152 kts | 63° |
| 2026-05-06 14:05 | 38.87893 | 1.38807 | 503 ft | 159 kts | 63° |
| 2026-05-06 14:05 | 38.88382 | 1.40032 | 1151 ft | 158 kts | 67° |
| 2026-05-06 14:06 | 38.88640 | 1.41382 | 1776 ft | 159 kts | 83° |
| 2026-05-06 14:06 | 38.88815 | 1.42826 | 2214 ft | 171 kts | 81° |
| 2026-05-06 14:06 | 38.89047 | 1.44405 | 2540 ft | 187 kts | 79° |
| 2026-05-06 14:06 | 38.89326 | 1.46092 | 2873 ft | 204 kts | 78° |
| 2026-05-06 14:07 | 38.89677 | 1.47984 | 3206 ft | 225 kts | 76° |
| 2026-05-06 14:07 | 38.90041 | 1.49936 | 3926 ft | 229 kts | 76° |
| 2026-05-06 14:07 | 38.90414 | 1.51918 | 4661 ft | 231 kts | 75° |
| 2026-05-06 14:07 | 38.90720 | 1.53949 | 5308 ft | 236 kts | 84° |
| 2026-05-06 14:08 | 38.90711 | 1.56063 | 5919 ft | 243 kts | 94° |
| 2026-05-06 14:08 | 38.90519 | 1.58321 | 6321 ft | 260 kts | 97° |
| 2026-05-06 14:08 | 38.90272 | 1.60682 | 6756 ft | 276 kts | 97° |
| 2026-05-06 14:08 | 38.90014 | 1.63159 | 7401 ft | 284 kts | 96° |
| 2026-05-06 14:09 | 38.89668 | 1.65655 | 8138 ft | 288 kts | 104° |
| 2026-05-06 14:09 | 38.89034 | 1.68083 | 8834 ft | 291 kts | 113° |
| 2026-05-06 14:09 | 38.88201 | 1.70465 | 9566 ft | 295 kts | 115° |
| 2026-05-06 14:09 | 38.87323 | 1.72852 | 10342 ft | 299 kts | 115° |
| 2026-05-06 14:10 | 38.86416 | 1.75310 | 10852 ft | 312 kts | 115° |
| 2026-05-06 14:10 | 38.85469 | 1.77883 | 11275 ft | 325 kts | 115° |
| 2026-05-06 14:10 | 38.84502 | 1.80523 | 11873 ft | 330 kts | 115° |
| 2026-05-06 14:10 | 38.83520 | 1.83221 | 12472 ft | 333 kts | 115° |
| 2026-05-06 14:11 | 38.82536 | 1.85929 | 13009 ft | 338 kts | 116° |
| 2026-05-06 14:11 | 38.81535 | 1.88684 | 13524 ft | 344 kts | 116° |
| 2026-05-06 14:11 | 38.80764 | 1.91624 | 13983 ft | 355 kts | 98° |
| 2026-05-06 14:11 | 38.80914 | 1.94768 | 14445 ft | 363 kts | 74° |
| 2026-05-06 14:12 | 38.81847 | 1.97781 | 15027 ft | 364 kts | 66° |
| 2026-05-06 14:12 | 38.82889 | 2.00751 | 15572 ft | 369 kts | 65° |
| 2026-05-06 14:12 | 38.83948 | 2.03785 | 16124 ft | 373 kts | 66° |
| 2026-05-06 14:12 | 38.85009 | 2.06870 | 16674 ft | 376 kts | 66° |
| 2026-05-06 14:13 | 38.86044 | 2.09919 | 17176 ft | 380 kts | 66° |
| 2026-05-06 14:13 | 38.87107 | 2.13074 | 17709 ft | 384 kts | 66° |
| 2026-05-06 14:13 | 38.88155 | 2.16202 | 18216 ft | 386 kts | 66° |
| 2026-05-06 14:13 | 38.89224 | 2.19382 | 18697 ft | 390 kts | 66° |
| 2026-05-06 14:14 | 38.90311 | 2.22624 | 19177 ft | 394 kts | 66° |
| 2026-05-06 14:14 | 38.91388 | 2.25847 | 19616 ft | 399 kts | 66° |
| 2026-05-06 14:14 | 38.92493 | 2.29156 | 20077 ft | 404 kts | 66° |
| 2026-05-06 14:14 | 38.93589 | 2.32449 | 20575 ft | 406 kts | 66° |
| 2026-05-06 14:15 | 38.94691 | 2.35764 | 21027 ft | 409 kts | 67° |
| 2026-05-06 14:15 | 38.95824 | 2.39175 | 21467 ft | 413 kts | 67° |
| 2026-05-06 14:15 | 38.96944 | 2.42550 | 21910 ft | 417 kts | 67° |
| 2026-05-06 14:15 | 38.98087 | 2.46006 | 22352 ft | 420 kts | 67° |
| 2026-05-06 14:16 | 38.99218 | 2.49428 | 22779 ft | 423 kts | 67° |
| 2026-05-06 14:16 | 39.00381 | 2.52951 | 23185 ft | 427 kts | 67° |
| 2026-05-06 14:16 | 39.01536 | 2.56454 | 23593 ft | 430 kts | 67° |
| 2026-05-06 14:16 | 39.02710 | 2.60018 | 24014 ft | 433 kts | 67° |
| 2026-05-06 14:17 | 39.03885 | 2.63589 | 24418 ft | 437 kts | 67° |
| 2026-05-06 14:17 | 39.05052 | 2.67149 | 24807 ft | 440 kts | 68° |
| 2026-05-06 14:17 | 39.06253 | 2.70814 | 25183 ft | 443 kts | 68° |
| 2026-05-06 14:17 | 39.07443 | 2.74456 | 25551 ft | 446 kts | 68° |
| 2026-05-06 14:18 | 39.08653 | 2.78159 | 25918 ft | 449 kts | 68° |
| 2026-05-06 14:18 | 39.09856 | 2.81843 | 26281 ft | 452 kts | 68° |
| 2026-05-06 14:18 | 39.11089 | 2.85624 | 26629 ft | 455 kts | 68° |
| 2026-05-06 14:18 | 39.12300 | 2.89344 | 26951 ft | 458 kts | 68° |
| 2026-05-06 14:19 | 39.13549 | 2.93180 | 27291 ft | 461 kts | 68° |
| 2026-05-06 14:19 | 39.14858 | 2.96931 | 27638 ft | 463 kts | 64° |
| 2026-05-06 14:19 | 39.16304 | 3.00650 | 27980 ft | 466 kts | 63° |
| 2026-05-06 14:19 | 39.17750 | 3.04279 | 28276 ft | 467 kts | 63° |
| 2026-05-06 14:20 | 39.19287 | 3.08119 | 28555 ft | 471 kts | 63° |
| 2026-05-06 14:20 | 39.20782 | 3.11867 | 28856 ft | 473 kts | 63° |
| 2026-05-06 14:20 | 39.22288 | 3.15658 | 29147 ft | 476 kts | 63° |
| 2026-05-06 14:20 | 39.23804 | 3.19484 | 29440 ft | 478 kts | 63° |
| 2026-05-06 14:21 | 39.25307 | 3.23286 | 29712 ft | 480 kts | 63° |
| 2026-05-06 14:21 | 39.26819 | 3.27120 | 29982 ft | 483 kts | 63° |
| 2026-05-06 14:21 | 39.28357 | 3.31026 | 30239 ft | 485 kts | 63° |
| 2026-05-06 14:21 | 39.29873 | 3.34877 | 30469 ft | 487 kts | 63° |
| 2026-05-06 14:22 | 39.31397 | 3.38763 | 30716 ft | 489 kts | 63° |
| 2026-05-06 14:22 | 39.32930 | 3.42681 | 30986 ft | 491 kts | 63° |
| 2026-05-06 14:22 | 39.34482 | 3.46647 | 31234 ft | 493 kts | 63° |
| 2026-05-06 14:22 | 39.36028 | 3.50598 | 31484 ft | 494 kts | 63° |
| 2026-05-06 14:23 | 39.37558 | 3.54511 | 31741 ft | 496 kts | 63° |
| 2026-05-06 14:23 | 39.39111 | 3.58486 | 31978 ft | 497 kts | 63° |
| 2026-05-06 14:23 | 39.40680 | 3.62510 | 32263 ft | 497 kts | 63° |
| 2026-05-06 14:23 | 39.42228 | 3.66490 | 32558 ft | 497 kts | 63° |
| 2026-05-06 14:24 | 39.43772 | 3.70461 | 32791 ft | 497 kts | 63° |
| 2026-05-06 14:24 | 39.45318 | 3.74447 | 32988 ft | 499 kts | 63° |
| 2026-05-06 14:24 | 39.46883 | 3.78491 | 33210 ft | 500 kts | 63° |
| 2026-05-06 14:24 | 39.48444 | 3.82524 | 33422 ft | 500 kts | 63° |
| 2026-05-06 14:25 | 39.49997 | 3.86547 | 33623 ft | 501 kts | 63° |
| 2026-05-06 14:25 | 39.51554 | 3.90581 | 33812 ft | 502 kts | 63° |
| 2026-05-06 14:25 | 39.53118 | 3.94643 | 33913 ft | 503 kts | 63° |
| 2026-05-06 14:25 | 39.54663 | 3.98659 | 33922 ft | 504 kts | 63° |
| 2026-05-06 14:26 | 39.57914 | 4.06712 | 33917 ft | 503 kts | 55° |
| 2026-05-06 14:26 | 39.62579 | 4.13416 | 33925 ft | 496 kts | 34° |
| 2026-05-06 14:27 | 39.68479 | 4.17740 | 33943 ft | 486 kts | 14° |
| 2026-05-06 14:27 | 39.74989 | 4.19630 | 33960 ft | 477 kts | 1° |
| 2026-05-06 14:28 | 39.81573 | 4.20731 | 33957 ft | 477 kts | 1° |
| 2026-05-06 14:28 | 39.88184 | 4.21989 | 33954 ft | 479 kts | 3° |
| 2026-05-06 14:29 | 39.94750 | 4.23531 | 33954 ft | 479 kts | 4° |
| 2026-05-06 14:29 | 40.01353 | 4.25115 | 33961 ft | 479 kts | 4° |
| 2026-05-06 14:30 | 40.07904 | 4.26666 | 33952 ft | 480 kts | 4° |
| 2026-05-06 14:30 | 40.14493 | 4.28223 | 33950 ft | 480 kts | 4° |
| 2026-05-06 14:31 | 40.20942 | 4.29746 | 33946 ft | 480 kts | 4° |
| 2026-05-06 14:31 | 40.27592 | 4.31319 | 33946 ft | 481 kts | 4° |
| 2026-05-06 14:32 | 40.34188 | 4.32885 | 33950 ft | 481 kts | 4° |
| 2026-05-06 14:32 | 40.40805 | 4.34458 | 33952 ft | 482 kts | 4° |
| 2026-05-06 14:33 | 40.47489 | 4.36048 | 33949 ft | 483 kts | 4° |
| 2026-05-06 14:33 | 40.54134 | 4.37632 | 33955 ft | 483 kts | 4° |
| 2026-05-06 14:34 | 40.60808 | 4.39227 | 33954 ft | 482 kts | 4° |
| 2026-05-06 14:34 | 40.67385 | 4.40801 | 33957 ft | 483 kts | 4° |
| 2026-05-06 14:35 | 40.74043 | 4.42398 | 33956 ft | 484 kts | 4° |
| 2026-05-06 14:35 | 40.80679 | 4.43995 | 33960 ft | 484 kts | 4° |
| 2026-05-06 14:36 | 40.87317 | 4.45596 | 33960 ft | 484 kts | 4° |
| 2026-05-06 14:36 | 40.93958 | 4.47198 | 33959 ft | 485 kts | 4° |
| 2026-05-06 14:37 | 41.00614 | 4.48815 | 33961 ft | 485 kts | 4° |
| 2026-05-06 14:37 | 41.07259 | 4.50431 | 33958 ft | 486 kts | 4° |
| 2026-05-06 14:38 | 41.13914 | 4.52050 | 33957 ft | 486 kts | 4° |
| 2026-05-06 14:38 | 41.20592 | 4.53677 | 33955 ft | 486 kts | 4° |
| 2026-05-06 14:39 | 41.27233 | 4.55300 | 33950 ft | 487 kts | 4° |
| 2026-05-06 14:39 | 41.33943 | 4.56943 | 33947 ft | 487 kts | 4° |
| 2026-05-06 14:40 | 41.40652 | 4.58590 | 33947 ft | 487 kts | 4° |
| 2026-05-06 14:40 | 41.47331 | 4.60233 | 33945 ft | 487 kts | 4° |
| 2026-05-06 14:41 | 41.54009 | 4.61877 | 33941 ft | 488 kts | 4° |
| 2026-05-06 14:41 | 41.60681 | 4.63527 | 33941 ft | 488 kts | 4° |
| 2026-05-06 14:42 | 41.67380 | 4.65465 | 33935 ft | 495 kts | 12° |
| 2026-05-06 14:42 | 41.73788 | 4.69115 | 33939 ft | 504 kts | 26° |
| 2026-05-06 14:43 | 41.79527 | 4.74634 | 33940 ft | 510 kts | 40° |
| 2026-05-06 14:43 | 41.84592 | 4.81286 | 33943 ft | 511 kts | 44° |
| 2026-05-06 14:44 | 41.89603 | 4.88074 | 33943 ft | 511 kts | 43° |
| 2026-05-06 14:45 | 41.97148 | 4.98162 | 33943 ft | 512 kts | 43° |
| 2026-05-06 14:45 | 42.02245 | 5.04951 | 33942 ft | 511 kts | 43° |
| 2026-05-06 14:46 | 42.07281 | 5.11675 | 33937 ft | 511 kts | 43° |
| 2026-05-06 14:46 | 42.12361 | 5.18473 | 33947 ft | 511 kts | 43° |
| 2026-05-06 14:47 | 42.17369 | 5.25187 | 33951 ft | 510 kts | 43° |
| 2026-05-06 14:47 | 42.22425 | 5.31983 | 33948 ft | 510 kts | 43° |
| 2026-05-06 14:48 | 42.27464 | 5.38773 | 33944 ft | 510 kts | 43° |
| 2026-05-06 14:48 | 42.32531 | 5.45622 | 33946 ft | 511 kts | 43° |
| 2026-05-06 14:49 | 42.37569 | 5.52446 | 33941 ft | 511 kts | 43° |
| 2026-05-06 14:49 | 42.42621 | 5.59303 | 33943 ft | 510 kts | 44° |
| 2026-05-06 14:50 | 42.47636 | 5.66127 | 33938 ft | 510 kts | 44° |
| 2026-05-06 14:50 | 42.52603 | 5.72901 | 33938 ft | 510 kts | 44° |
| 2026-05-06 14:51 | 42.57613 | 5.79754 | 33939 ft | 510 kts | 44° |
| 2026-05-06 14:51 | 42.62595 | 5.86585 | 33934 ft | 510 kts | 44° |
| 2026-05-06 14:52 | 42.67580 | 5.93437 | 33932 ft | 510 kts | 44° |
| 2026-05-06 14:52 | 42.72561 | 6.00296 | 33935 ft | 511 kts | 44° |
| 2026-05-06 14:53 | 42.77588 | 6.07242 | 33925 ft | 511 kts | 44° |
| 2026-05-06 14:53 | 42.82591 | 6.14168 | 33925 ft | 511 kts | 44° |
| 2026-05-06 14:54 | 42.87778 | 6.20838 | 33915 ft | 510 kts | 39° |
| 2026-05-06 14:54 | 42.93221 | 6.27067 | 33911 ft | 510 kts | 38° |
| 2026-05-06 14:55 | 42.98676 | 6.33278 | 33912 ft | 511 kts | 38° |
| 2026-05-06 14:55 | 43.04131 | 6.39546 | 33905 ft | 511 kts | 38° |
| 2026-05-06 14:56 | 43.09564 | 6.45814 | 33903 ft | 510 kts | 38° |
| 2026-05-06 14:56 | 43.14850 | 6.51934 | 33884 ft | 510 kts | 38° |
| 2026-05-06 14:57 | 43.20237 | 6.58466 | 33883 ft | 511 kts | 44° |
| 2026-05-06 14:57 | 43.24952 | 6.65718 | 33878 ft | 510 kts | 53° |
| 2026-05-06 14:58 | 43.29117 | 6.73574 | 33879 ft | 510 kts | 56° |
| 2026-05-06 14:58 | 43.33181 | 6.81416 | 33869 ft | 511 kts | 55° |
| 2026-05-06 14:59 | 43.37329 | 6.89313 | 33866 ft | 511 kts | 55° |
| 2026-05-06 14:59 | 43.41504 | 6.97260 | 33851 ft | 512 kts | 55° |
| 2026-05-06 15:00 | 43.45665 | 7.05214 | 33856 ft | 512 kts | 55° |
| 2026-05-06 15:00 | 43.49782 | 7.13106 | 33861 ft | 512 kts | 55° |
| 2026-05-06 15:01 | 43.53924 | 7.21073 | 33857 ft | 511 kts | 55° |
| 2026-05-06 15:01 | 43.58072 | 7.29069 | 33855 ft | 511 kts | 56° |
| 2026-05-06 15:02 | 43.62212 | 7.37073 | 33851 ft | 511 kts | 56° |
| 2026-05-06 15:02 | 43.66301 | 7.44995 | 33856 ft | 511 kts | 55° |
| 2026-05-06 15:03 | 43.70424 | 7.53005 | 33855 ft | 512 kts | 55° |
| 2026-05-06 15:03 | 43.74542 | 7.61029 | 33852 ft | 512 kts | 56° |
| 2026-05-06 15:04 | 43.78655 | 7.68959 | 33848 ft | 513 kts | 53° |
| 2026-05-06 15:04 | 43.83263 | 7.76307 | 33858 ft | 513 kts | 45° |
| 2026-05-06 15:05 | 43.88624 | 7.82868 | 33863 ft | 512 kts | 37° |
| 2026-05-06 15:05 | 43.94286 | 7.88835 | 33868 ft | 512 kts | 37° |
| 2026-05-06 15:06 | 43.99680 | 7.95284 | 33871 ft | 513 kts | 41° |
| 2026-05-06 15:06 | 44.04956 | 8.01963 | 33865 ft | 513 kts | 42° |
| 2026-05-06 15:07 | 44.10148 | 8.08666 | 33856 ft | 513 kts | 44° |
| 2026-05-06 15:07 | 44.15235 | 8.15597 | 33855 ft | 513 kts | 45° |
| 2026-05-06 15:08 | 44.20337 | 8.22592 | 33854 ft | 512 kts | 44° |
| 2026-05-06 15:08 | 44.25419 | 8.29537 | 33848 ft | 513 kts | 44° |
| 2026-05-06 15:09 | 44.30511 | 8.36497 | 33840 ft | 512 kts | 44° |
| 2026-05-06 15:09 | 44.35582 | 8.43440 | 33834 ft | 512 kts | 44° |
| 2026-05-06 15:10 | 44.40647 | 8.50396 | 33837 ft | 513 kts | 44° |
| 2026-05-06 15:10 | 44.45736 | 8.57401 | 33846 ft | 512 kts | 44° |
| 2026-05-06 15:11 | 44.50787 | 8.64380 | 33852 ft | 512 kts | 44° |
| 2026-05-06 15:11 | 44.55846 | 8.71375 | 33852 ft | 511 kts | 45° |
| 2026-05-06 15:12 | 44.60907 | 8.78398 | 33857 ft | 511 kts | 45° |
| 2026-05-06 15:12 | 44.65980 | 8.85462 | 33861 ft | 512 kts | 45° |
| 2026-05-06 15:13 | 44.71008 | 8.92474 | 33861 ft | 512 kts | 45° |
| 2026-05-06 15:13 | 44.76101 | 8.99597 | 33862 ft | 512 kts | 45° |
| 2026-05-06 15:14 | 44.81158 | 9.06685 | 33863 ft | 513 kts | 45° |
| 2026-05-06 15:14 | 44.86199 | 9.13770 | 33856 ft | 512 kts | 45° |
| 2026-05-06 15:15 | 44.91217 | 9.20841 | 33849 ft | 512 kts | 45° |
| 2026-05-06 15:15 | 44.96233 | 9.27930 | 33844 ft | 512 kts | 45° |
| 2026-05-06 15:16 | 45.01221 | 9.34994 | 33837 ft | 512 kts | 45° |
| 2026-05-06 15:16 | 45.06234 | 9.42115 | 33833 ft | 512 kts | 45° |
| 2026-05-06 15:17 | 45.11265 | 9.49285 | 33827 ft | 512 kts | 45° |
| 2026-05-06 15:17 | 45.16274 | 9.56436 | 33831 ft | 513 kts | 45° |
| 2026-05-06 15:18 | 45.21231 | 9.63528 | 33832 ft | 512 kts | 45° |
| 2026-05-06 15:18 | 45.26173 | 9.70619 | 33833 ft | 512 kts | 46° |
| 2026-05-06 15:19 | 45.31122 | 9.77760 | 33833 ft | 511 kts | 46° |
| 2026-05-06 15:19 | 45.36093 | 9.84937 | 33837 ft | 511 kts | 46° |
| 2026-05-06 15:20 | 45.41054 | 9.92118 | 33839 ft | 512 kts | 46° |
| 2026-05-06 15:20 | 45.46009 | 9.99312 | 33846 ft | 513 kts | 46° |
| 2026-05-06 15:21 | 45.50994 | 10.06559 | 33844 ft | 513 kts | 46° |
| 2026-05-06 15:21 | 45.55963 | 10.13811 | 33856 ft | 514 kts | 46° |
| 2026-05-06 15:22 | 45.60934 | 10.21082 | 33856 ft | 514 kts | 46° |
| 2026-05-06 15:22 | 45.65923 | 10.28401 | 33869 ft | 515 kts | 46° |
| 2026-05-06 15:23 | 45.70904 | 10.35722 | 33876 ft | 514 kts | 46° |
| 2026-05-06 15:23 | 45.75850 | 10.43009 | 33880 ft | 514 kts | 46° |
| 2026-05-06 15:24 | 45.80813 | 10.50349 | 33888 ft | 514 kts | 46° |
| 2026-05-06 15:24 | 45.86033 | 10.57317 | 33881 ft | 514 kts | 32° |
| 2026-05-06 15:25 | 45.92323 | 10.62106 | 33890 ft | 511 kts | 22° |
| 2026-05-06 15:25 | 45.98586 | 10.66307 | 33886 ft | 511 kts | 23° |
| 2026-05-06 15:26 | 46.04940 | 10.70683 | 33884 ft | 512 kts | 24° |
| 2026-05-06 15:26 | 46.11216 | 10.75101 | 33880 ft | 512 kts | 24° |
| 2026-05-06 15:27 | 46.17494 | 10.79560 | 33884 ft | 511 kts | 24° |
| 2026-05-06 15:27 | 46.23817 | 10.84056 | 33886 ft | 511 kts | 24° |
| 2026-05-06 15:28 | 46.30077 | 10.88526 | 33896 ft | 510 kts | 24° |
| 2026-05-06 15:28 | 46.36255 | 10.92945 | 33903 ft | 509 kts | 24° |
| 2026-05-06 15:29 | 46.42503 | 10.97420 | 33911 ft | 510 kts | 23° |
| 2026-05-06 15:29 | 46.48734 | 11.01894 | 33911 ft | 509 kts | 24° |
| 2026-05-06 15:30 | 46.55033 | 11.06439 | 33915 ft | 509 kts | 24° |
| 2026-05-06 15:30 | 46.61257 | 11.10931 | 33922 ft | 508 kts | 23° |
| 2026-05-06 15:31 | 46.67462 | 11.15425 | 33920 ft | 508 kts | 24° |
| 2026-05-06 15:31 | 46.73717 | 11.19967 | 33920 ft | 508 kts | 24° |
| 2026-05-06 15:32 | 46.83040 | 11.26765 | 33906 ft | 508 kts | 24° |
| 2026-05-06 15:32 | 46.89205 | 11.31276 | 33911 ft | 507 kts | 24° |
| 2026-05-06 15:33 | 46.95446 | 11.35850 | 33907 ft | 507 kts | 23° |
| 2026-05-06 15:33 | 47.01899 | 11.39984 | 33923 ft | 506 kts | 17° |
| 2026-05-06 15:34 | 47.05156 | 11.41802 | 34041 ft | 508 kts | 17° |
| 2026-05-06 15:34 | 47.08382 | 11.43583 | 34287 ft | 508 kts | 16° |
| 2026-05-06 15:34 | 47.11375 | 11.45242 | 34542 ft | 507 kts | 17° |
| 2026-05-06 15:34 | 47.14737 | 11.47127 | 34775 ft | 506 kts | 17° |
| 2026-05-06 15:35 | 47.18147 | 11.49047 | 34884 ft | 505 kts | 17° |
| 2026-05-06 15:35 | 47.21409 | 11.50896 | 34888 ft | 505 kts | 17° |
| 2026-05-06 15:35 | 47.27955 | 11.54627 | 34886 ft | 502 kts | 17° |
| 2026-05-06 15:36 | 47.34470 | 11.58341 | 34898 ft | 503 kts | 17° |
| 2026-05-06 15:36 | 47.41039 | 11.62100 | 34902 ft | 502 kts | 17° |
| 2026-05-06 15:37 | 47.47554 | 11.65835 | 34891 ft | 503 kts | 18° |
| 2026-05-06 15:37 | 47.54111 | 11.69603 | 34883 ft | 503 kts | 18° |
| 2026-05-06 15:38 | 47.60507 | 11.73291 | 34868 ft | 503 kts | 18° |
| 2026-05-06 15:38 | 47.66714 | 11.77422 | 34855 ft | 506 kts | 26° |
| 2026-05-06 15:39 | 47.72632 | 11.83022 | 34845 ft | 508 kts | 36° |
| 2026-05-06 15:39 | 47.77778 | 11.89663 | 34834 ft | 509 kts | 44° |
| 2026-05-06 15:40 | 47.82761 | 11.96997 | 34806 ft | 509 kts | 44° |
| 2026-05-06 15:40 | 47.87679 | 12.04256 | 34790 ft | 509 kts | 44° |
| 2026-05-06 15:41 | 47.92631 | 12.11512 | 34780 ft | 509 kts | 44° |
| 2026-05-06 15:41 | 47.97459 | 12.18583 | 34765 ft | 511 kts | 44° |
| 2026-05-06 15:42 | 48.02564 | 12.26068 | 34755 ft | 510 kts | 44° |
| 2026-05-06 15:42 | 48.07471 | 12.33264 | 34750 ft | 510 kts | 44° |
| 2026-05-06 15:43 | 48.12445 | 12.40594 | 34748 ft | 509 kts | 44° |
| 2026-05-06 15:43 | 48.17343 | 12.47848 | 34745 ft | 508 kts | 44° |
| 2026-05-06 15:44 | 48.22332 | 12.55224 | 34743 ft | 509 kts | 42° |
| 2026-05-06 15:44 | 48.27656 | 12.62155 | 34744 ft | 508 kts | 38° |
| 2026-05-06 15:45 | 48.33135 | 12.68897 | 34739 ft | 508 kts | 39° |
| 2026-05-06 15:45 | 48.38573 | 12.75631 | 34741 ft | 507 kts | 39° |
| 2026-05-06 15:46 | 48.43995 | 12.82399 | 34740 ft | 506 kts | 39° |
| 2026-05-06 15:46 | 48.49366 | 12.89123 | 34738 ft | 506 kts | 39° |
| 2026-05-06 15:47 | 48.54936 | 12.95532 | 34737 ft | 504 kts | 32° |
| 2026-05-06 15:47 | 48.60922 | 13.00943 | 34731 ft | 503 kts | 26° |
| 2026-05-06 15:48 | 48.66985 | 13.06045 | 34726 ft | 503 kts | 26° |
| 2026-05-06 15:48 | 48.73067 | 13.11264 | 34735 ft | 501 kts | 27° |
| 2026-05-06 15:49 | 48.79076 | 13.16464 | 34729 ft | 502 kts | 27° |
| 2026-05-06 15:49 | 48.85079 | 13.21674 | 34734 ft | 501 kts | 26° |
| 2026-05-06 15:50 | 48.91169 | 13.26294 | 34735 ft | 499 kts | 20° |
| 2026-05-06 15:50 | 48.97505 | 13.30299 | 34739 ft | 497 kts | 18° |
| 2026-05-06 15:51 | 49.03833 | 13.34277 | 34748 ft | 497 kts | 19° |
| 2026-05-06 15:51 | 49.10018 | 13.38786 | 34751 ft | 500 kts | 27° |
| 2026-05-06 15:52 | 49.15741 | 13.44628 | 34754 ft | 503 kts | 36° |
| 2026-05-06 15:52 | 49.20943 | 13.51508 | 33998 ft | 504 kts | 40° |
| 2026-05-06 15:53 | 49.23531 | 13.55096 | 32927 ft | 512 kts | 41° |
| 2026-05-06 15:53 | 49.26130 | 13.58698 | 32038 ft | 514 kts | 41° |
| 2026-05-06 15:53 | 49.28760 | 13.62331 | 31339 ft | 510 kts | 41° |
| 2026-05-06 15:53 | 49.31325 | 13.65864 | 30465 ft | 502 kts | 42° |
| 2026-05-06 15:54 | 49.33904 | 13.69409 | 30000 ft | 495 kts | 42° |
| 2026-05-06 15:54 | 49.36400 | 13.72844 | 29778 ft | 489 kts | 42° |
| 2026-05-06 15:54 | 49.38890 | 13.76273 | 29632 ft | 486 kts | 42° |
| 2026-05-06 15:54 | 49.41408 | 13.79742 | 28936 ft | 483 kts | 42° |
| 2026-05-06 15:55 | 49.43893 | 13.83169 | 28298 ft | 480 kts | 42° |
| 2026-05-06 15:55 | 49.46359 | 13.86575 | 27710 ft | 476 kts | 42° |
| 2026-05-06 15:55 | 49.48746 | 13.89877 | 27141 ft | 471 kts | 42° |
| 2026-05-06 15:55 | 49.51166 | 13.93229 | 26519 ft | 467 kts | 42° |
| 2026-05-06 15:56 | 49.53522 | 13.96496 | 25903 ft | 463 kts | 42° |
| 2026-05-06 15:56 | 49.55891 | 13.99786 | 25261 ft | 459 kts | 42° |
| 2026-05-06 15:56 | 49.58190 | 14.02983 | 24639 ft | 455 kts | 42° |
| 2026-05-06 15:56 | 49.60468 | 14.06156 | 24026 ft | 451 kts | 42° |
| 2026-05-06 15:57 | 49.62818 | 14.09413 | 23392 ft | 447 kts | 40° |
| 2026-05-06 15:57 | 49.65354 | 14.12039 | 22746 ft | 442 kts | 24° |
| 2026-05-06 15:57 | 49.68267 | 14.13592 | 22142 ft | 432 kts | 9° |
| 2026-05-06 15:57 | 49.71163 | 14.14501 | 21559 ft | 426 kts | 6° |
| 2026-05-06 15:58 | 49.74061 | 14.15303 | 20951 ft | 423 kts | 6° |
| 2026-05-06 15:58 | 49.76922 | 14.16121 | 20399 ft | 420 kts | 7° |
| 2026-05-06 15:58 | 49.79791 | 14.16992 | 19863 ft | 415 kts | 8° |
| 2026-05-06 15:58 | 49.82568 | 14.17867 | 19329 ft | 409 kts | 8° |
| 2026-05-06 15:59 | 49.85350 | 14.19120 | 18706 ft | 413 kts | 24° |
| 2026-05-06 15:59 | 49.87615 | 14.21768 | 18151 ft | 411 kts | 50° |
| 2026-05-06 15:59 | 49.89083 | 14.25510 | 17676 ft | 401 kts | 69° |
| 2026-05-06 15:59 | 49.90054 | 14.29484 | 17189 ft | 397 kts | 72° |
| 2026-05-06 16:00 | 49.91060 | 14.33453 | 16680 ft | 395 kts | 69° |
| 2026-05-06 16:00 | 49.92049 | 14.37412 | 16188 ft | 389 kts | 79° |
| 2026-05-06 16:00 | 49.92165 | 14.41457 | 15683 ft | 375 kts | 105° |
| 2026-05-06 16:00 | 49.91204 | 14.45093 | 15214 ft | 359 kts | 129° |
| 2026-05-06 16:01 | 49.89597 | 14.47987 | 14754 ft | 350 kts | 138° |
| 2026-05-06 16:01 | 49.87949 | 14.50696 | 14236 ft | 346 kts | 136° |
| 2026-05-06 16:01 | 49.86368 | 14.53511 | 13590 ft | 345 kts | 134° |
| 2026-05-06 16:01 | 49.84880 | 14.56390 | 12989 ft | 345 kts | 132° |
| 2026-05-06 16:02 | 49.83418 | 14.59326 | 12512 ft | 340 kts | 131° |
| 2026-05-06 16:02 | 49.82019 | 14.62170 | 11975 ft | 335 kts | 131° |
| 2026-05-06 16:02 | 49.80614 | 14.65031 | 11360 ft | 333 kts | 131° |
| 2026-05-06 16:02 | 49.79234 | 14.67837 | 10765 ft | 332 kts | 131° |
| 2026-05-06 16:03 | 49.77850 | 14.70658 | 10242 ft | 326 kts | 131° |
| 2026-05-06 16:03 | 49.76521 | 14.73359 | 9986 ft | 314 kts | 131° |
| 2026-05-06 16:03 | 49.75257 | 14.76045 | 9841 ft | 300 kts | 124° |
| 2026-05-06 16:03 | 49.74676 | 14.79055 | 9548 ft | 300 kts | 93° |
| 2026-05-06 16:04 | 49.75170 | 14.82149 | 9172 ft | 301 kts | 62° |
| 2026-05-06 16:04 | 49.76548 | 14.84508 | 8816 ft | 298 kts | 36° |
| 2026-05-06 16:04 | 49.78329 | 14.85678 | 8465 ft | 293 kts | 8° |
| 2026-05-06 16:04 | 49.80360 | 14.85455 | 8102 ft | 287 kts | 339° |
| 2026-05-06 16:05 | 49.81990 | 14.83901 | 7753 ft | 281 kts | 311° |
| 2026-05-06 16:05 | 49.83165 | 14.81576 | 7428 ft | 278 kts | 303° |
| 2026-05-06 16:05 | 49.84272 | 14.79133 | 7100 ft | 276 kts | 303° |
| 2026-05-06 16:05 | 49.85386 | 14.76750 | 6776 ft | 276 kts | 303° |
| 2026-05-06 16:06 | 49.86523 | 14.74361 | 6442 ft | 275 kts | 304° |
| 2026-05-06 16:06 | 49.87670 | 14.71999 | 6113 ft | 274 kts | 305° |
| 2026-05-06 16:06 | 49.88804 | 14.69670 | 5793 ft | 272 kts | 306° |
| 2026-05-06 16:06 | 49.89952 | 14.67344 | 5470 ft | 271 kts | 306° |
| 2026-05-06 16:07 | 49.91098 | 14.65055 | 5155 ft | 269 kts | 307° |
| 2026-05-06 16:07 | 49.92285 | 14.62814 | 4838 ft | 267 kts | 308° |
| 2026-05-06 16:07 | 49.93449 | 14.60567 | 4521 ft | 265 kts | 307° |
| 2026-05-06 16:07 | 49.94574 | 14.58305 | 4204 ft | 263 kts | 306° |
| 2026-05-06 16:08 | 49.95649 | 14.56077 | 4010 ft | 253 kts | 306° |
| 2026-05-06 16:08 | 49.96665 | 14.53958 | 3998 ft | 236 kts | 306° |
| 2026-05-06 16:08 | 49.97609 | 14.51980 | 3997 ft | 224 kts | 305° |
| 2026-05-06 16:08 | 49.98537 | 14.50025 | 4001 ft | 224 kts | 306° |
| 2026-05-06 16:09 | 49.99443 | 14.48126 | 3986 ft | 211 kts | 306° |
| 2026-05-06 16:09 | 50.00316 | 14.46299 | 3963 ft | 211 kts | 306° |
| 2026-05-06 16:09 | 50.01191 | 14.44472 | 3783 ft | 210 kts | 307° |
| 2026-05-06 16:09 | 50.02043 | 14.42705 | 3553 ft | 202 kts | 307° |
| 2026-05-06 16:10 | 50.02879 | 14.40963 | 3254 ft | 199 kts | 307° |
| 2026-05-06 16:10 | 50.03692 | 14.39265 | 2975 ft | 196 kts | 307° |
| 2026-05-06 16:10 | 50.04502 | 14.37583 | 2704 ft | 191 kts | 308° |
| 2026-05-06 16:10 | 50.05276 | 14.35981 | 2461 ft | 176 kts | 307° |
| 2026-05-06 16:11 | 50.05980 | 14.34524 | 2228 ft | 165 kts | 306° |
| 2026-05-06 16:11 | 50.06633 | 14.33170 | 2012 ft | 154 kts | 306° |
| 2026-05-06 16:11 | 50.07252 | 14.31863 | 1834 ft | 152 kts | 307° |
| 2026-05-06 16:11 | 50.07895 | 14.30552 | 1646 ft | 151 kts | 305° |
| 2026-05-06 16:12 | 50.08530 | 14.29254 | 1421 ft | 148 kts | 304° |
| 2026-05-06 16:12 | 50.09133 | 14.27985 | 1264 ft | 145 kts | 302° |
| 2026-05-06 16:12 | 50.09702 | 14.26775 | 1214 ft | 122 kts | 308° |
| 2026-05-06 16:12 | 50.10081 | 14.26015 | 1196 ft | 46 kts | 312° |
| 2026-05-06 16:13 | 50.10191 | 14.25824 | 1189 ft | 25 kts | 307° |
| 2026-05-06 16:13 | 50.10311 | 14.25688 | 1184 ft | 12 kts | 343° |
| 2026-05-06 16:13 | 50.10400 | 14.25656 | 1181 ft | 17 kts | 349° |
| 2026-05-06 16:13 | 50.10485 | 14.25654 | 1179 ft | 11 kts | 19° |
| 2026-05-06 16:14 | 50.10541 | 14.25719 | 1178 ft | 1 kts | 40° |
| 2026-05-06 16:14 | 50.10574 | 14.25773 | 1177 ft | 4 kts | 62° |